sensor_id;sensor_type;location;lat;lon;timestamp;P1;durP1;ratioP1;P2;durP2;ratioP2
61642;SDS011;47551;52.506;4.678;2022-07-25T00:00:09;7.70;;;5.10;;
61642;SDS011;47551;52.506;4.678;2022-07-25T00:00:30;7.25;;;4.80;;
61642;SDS011;47551;52.506;4.678;2022-07-25T00:00:51;7.82;;;4.80;;
61642;SDS011;47551;52.506;4.678;2022-07-25T00:01:11;7.63;;;4.90;;
61642;SDS011;47551;52.506;4.678;2022-07-25T00:01:34;7.30;;;5.10;;
61642;SDS011;47551;52.506;4.678;2022-07-25T00:01:54;6.43;;;4.87;;
61642;SDS011;47551;52.506;4.678;2022-07-25T00:02:15;7.25;;;5.00;;
61642;SDS011;47551;52.506;4.678;2022-07-25T00:02:35;6.50;;;4.80;;
61642;SDS011;47551;52.506;4.678;2022-07-25T00:02:55;7.40;;;4.80;;
61642;SDS011;47551;52.506;4.678;2022-07-25T00:03:16;7.80;;;4.80;;
61642;SDS011;47551;52.506;4.678;2022-07-25T00:03:36;7.43;;;4.90;;
61642;SDS011;47551;52.506;4.678;2022-07-25T00:03:57;7.90;;;5.13;;
61642;SDS011;47551;52.506;4.678;2022-07-25T00:04:19;8.15;;;4.97;;
61642;SDS011;47551;52.506;4.678;2022-07-25T00:04:40;7.60;;;5.00;;
61642;SDS011;47551;52.506;4.678;2022-07-25T00:05:01;6.53;;;5.10;;
61642;SDS011;47551;52.506;4.678;2022-07-25T00:05:22;6.60;;;5.22;;
61642;SDS011;47551;52.506;4.678;2022-07-25T00:05:42;7.43;;;4.93;;
61642;SDS011;47551;52.506;4.678;2022-07-25T00:06:03;7.30;;;5.00;;
61642;SDS011;47551;52.506;4.678;2022-07-25T00:06:23;7.03;;;5.07;;
61642;SDS011;47551;52.506;4.678;2022-07-25T00:06:44;8.23;;;4.90;;
61642;SDS011;47551;52.506;4.678;2022-07-25T00:07:04;8.03;;;4.93;;
61642;SDS011;47551;52.506;4.678;2022-07-25T00:07:24;6.97;;;5.05;;
61642;SDS011;47551;52.506;4.678;2022-07-25T00:07:48;7.20;;;5.10;;
61642;SDS011;47551;52.506;4.678;2022-07-25T00:08:08;7.28;;;4.88;;
61642;SDS011;47551;52.506;4.678;2022-07-25T00:08:29;7.30;;;4.53;;
61642;SDS011;47551;52.506;4.678;2022-07-25T00:08:50;7.80;;;4.82;;
61642;SDS011;47551;52.506;4.678;2022-07-25T00:09:10;6.87;;;4.90;;
61642;SDS011;47551;52.506;4.678;2022-07-25T00:09:30;7.20;;;5.07;;
61642;SDS011;47551;52.506;4.678;2022-07-25T00:09:51;7.23;;;5.13;;
61642;SDS011;47551;52.506;4.678;2022-07-25T00:10:11;6.77;;;4.80;;
61642;SDS011;47551;52.506;4.678;2022-07-25T00:10:31;7.70;;;5.00;;
61642;SDS011;47551;52.506;4.678;2022-07-25T00:10:54;7.25;;;4.90;;
61642;SDS011;47551;52.506;4.678;2022-07-25T00:11:15;7.37;;;5.07;;
61642;SDS011;47551;52.506;4.678;2022-07-25T00:11:35;7.25;;;5.32;;
61642;SDS011;47551;52.506;4.678;2022-07-25T00:11:56;7.13;;;5.10;;
61642;SDS011;47551;52.506;4.678;2022-07-25T00:12:16;6.93;;;5.00;;
61642;SDS011;47551;52.506;4.678;2022-07-25T00:12:36;8.07;;;5.00;;
61642;SDS011;47551;52.506;4.678;2022-07-25T00:12:57;7.23;;;5.20;;
61642;SDS011;47551;52.506;4.678;2022-07-25T00:13:20;7.03;;;4.88;;
61642;SDS011;47551;52.506;4.678;2022-07-25T00:13:43;6.00;;;4.78;;
61642;SDS011;47551;52.506;4.678;2022-07-25T00:14:04;6.40;;;4.70;;
61642;SDS011;47551;52.506;4.678;2022-07-25T00:14:27;7.90;;;4.82;;
61642;SDS011;47551;52.506;4.678;2022-07-25T00:14:50;9.25;;;4.78;;
61642;SDS011;47551;52.506;4.678;2022-07-25T00:15:11;8.57;;;4.97;;
61642;SDS011;47551;52.506;4.678;2022-07-25T00:15:32;7.53;;;5.20;;
61642;SDS011;47551;52.506;4.678;2022-07-25T00:15:54;7.13;;;4.97;;
61642;SDS011;47551;52.506;4.678;2022-07-25T00:16:18;7.18;;;4.75;;
61642;SDS011;47551;52.506;4.678;2022-07-25T00:16:38;7.43;;;4.93;;
61642;SDS011;47551;52.506;4.678;2022-07-25T00:16:59;7.13;;;4.70;;
61642;SDS011;47551;52.506;4.678;2022-07-25T00:17:19;7.80;;;5.03;;
61642;SDS011;47551;52.506;4.678;2022-07-25T00:17:39;7.13;;;4.90;;
61642;SDS011;47551;52.506;4.678;2022-07-25T00:18:00;7.43;;;4.78;;
61642;SDS011;47551;52.506;4.678;2022-07-25T00:18:20;7.40;;;4.97;;
61642;SDS011;47551;52.506;4.678;2022-07-25T00:18:40;6.30;;;4.80;;
61642;SDS011;47551;52.506;4.678;2022-07-25T00:19:01;6.53;;;5.18;;
61642;SDS011;47551;52.506;4.678;2022-07-25T00:19:22;7.40;;;4.93;;
61642;SDS011;47551;52.506;4.678;2022-07-25T00:19:42;7.37;;;4.63;;
61642;SDS011;47551;52.506;4.678;2022-07-25T00:20:03;6.90;;;4.90;;
61642;SDS011;47551;52.506;4.678;2022-07-25T00:20:24;8.43;;;5.28;;
61642;SDS011;47551;52.506;4.678;2022-07-25T00:20:44;7.80;;;4.70;;
61642;SDS011;47551;52.506;4.678;2022-07-25T00:21:05;7.57;;;5.03;;
61642;SDS011;47551;52.506;4.678;2022-07-25T00:21:26;7.30;;;5.20;;
61642;SDS011;47551;52.506;4.678;2022-07-25T00:21:46;7.30;;;5.00;;
61642;SDS011;47551;52.506;4.678;2022-07-25T00:22:06;6.75;;;4.68;;
61642;SDS011;47551;52.506;4.678;2022-07-25T00:22:27;6.13;;;4.80;;
61642;SDS011;47551;52.506;4.678;2022-07-25T00:22:47;7.73;;;5.07;;
61642;SDS011;47551;52.506;4.678;2022-07-25T00:23:08;8.17;;;5.10;;
61642;SDS011;47551;52.506;4.678;2022-07-25T00:23:28;7.43;;;4.87;;
61642;SDS011;47551;52.506;4.678;2022-07-25T00:23:48;6.90;;;4.72;;
61642;SDS011;47551;52.506;4.678;2022-07-25T00:24:12;6.90;;;4.90;;
61642;SDS011;47551;52.506;4.678;2022-07-25T00:24:35;7.32;;;4.82;;
61642;SDS011;47551;52.506;4.678;2022-07-25T00:24:58;7.57;;;5.10;;
61642;SDS011;47551;52.506;4.678;2022-07-25T00:25:18;7.65;;;5.13;;
61642;SDS011;47551;52.506;4.678;2022-07-25T00:25:38;7.80;;;4.90;;
61642;SDS011;47551;52.506;4.678;2022-07-25T00:25:59;7.13;;;4.87;;
61642;SDS011;47551;52.506;4.678;2022-07-25T00:26:19;6.40;;;4.72;;
61642;SDS011;47551;52.506;4.678;2022-07-25T00:26:39;7.50;;;5.00;;
61642;SDS011;47551;52.506;4.678;2022-07-25T00:27:00;6.87;;;4.80;;
61642;SDS011;47551;52.506;4.678;2022-07-25T00:27:21;7.13;;;4.90;;
61642;SDS011;47551;52.506;4.678;2022-07-25T00:27:44;8.02;;;5.10;;
61642;SDS011;47551;52.506;4.678;2022-07-25T00:28:04;7.73;;;5.00;;
61642;SDS011;47551;52.506;4.678;2022-07-25T00:28:25;7.07;;;4.90;;
61642;SDS011;47551;52.506;4.678;2022-07-25T00:28:45;6.57;;;4.90;;
61642;SDS011;47551;52.506;4.678;2022-07-25T00:29:06;7.43;;;5.30;;
61642;SDS011;47551;52.506;4.678;2022-07-25T00:29:26;7.95;;;5.18;;
61642;SDS011;47551;52.506;4.678;2022-07-25T00:29:47;6.87;;;5.13;;
61642;SDS011;47551;52.506;4.678;2022-07-25T00:30:10;6.90;;;4.72;;
61642;SDS011;47551;52.506;4.678;2022-07-25T00:30:31;7.13;;;4.80;;
61642;SDS011;47551;52.506;4.678;2022-07-25T00:30:51;5.97;;;4.65;;
61642;SDS011;47551;52.506;4.678;2022-07-25T00:31:11;6.07;;;4.63;;
61642;SDS011;47551;52.506;4.678;2022-07-25T00:31:32;7.00;;;4.73;;
61642;SDS011;47551;52.506;4.678;2022-07-25T00:31:52;7.45;;;5.03;;
61642;SDS011;47551;52.506;4.678;2022-07-25T00:32:12;6.10;;;4.90;;
61642;SDS011;47551;52.506;4.678;2022-07-25T00:32:33;6.70;;;4.90;;
61642;SDS011;47551;52.506;4.678;2022-07-25T00:32:53;6.82;;;5.00;;
61642;SDS011;47551;52.506;4.678;2022-07-25T00:33:13;5.67;;;4.70;;
61642;SDS011;47551;52.506;4.678;2022-07-25T00:33:34;6.93;;;4.77;;
61642;SDS011;47551;52.506;4.678;2022-07-25T00:33:54;6.40;;;4.72;;
61642;SDS011;47551;52.506;4.678;2022-07-25T00:34:17;6.80;;;4.60;;
61642;SDS011;47551;52.506;4.678;2022-07-25T00:34:37;7.50;;;4.87;;
61642;SDS011;47551;52.506;4.678;2022-07-25T00:34:58;7.72;;;4.80;;
61642;SDS011;47551;52.506;4.678;2022-07-25T00:35:18;7.33;;;4.60;;
61642;SDS011;47551;52.506;4.678;2022-07-25T00:35:38;5.33;;;4.43;;
61642;SDS011;47551;52.506;4.678;2022-07-25T00:35:59;5.93;;;4.43;;
61642;SDS011;47551;52.506;4.678;2022-07-25T00:36:19;5.67;;;4.37;;
61642;SDS011;47551;52.506;4.678;2022-07-25T00:36:40;6.95;;;4.85;;
61642;SDS011;47551;52.506;4.678;2022-07-25T00:37:00;7.57;;;4.73;;
61642;SDS011;47551;52.506;4.678;2022-07-25T00:37:20;7.00;;;4.80;;
61642;SDS011;47551;52.506;4.678;2022-07-25T00:37:41;7.25;;;4.70;;
61642;SDS011;47551;52.506;4.678;2022-07-25T00:38:01;7.47;;;4.70;;
61642;SDS011;47551;52.506;4.678;2022-07-25T00:38:23;6.03;;;4.65;;
61642;SDS011;47551;52.506;4.678;2022-07-25T00:38:44;6.57;;;4.70;;
61642;SDS011;47551;52.506;4.678;2022-07-25T00:39:04;6.13;;;4.47;;
61642;SDS011;47551;52.506;4.678;2022-07-25T00:39:24;5.53;;;4.40;;
61642;SDS011;47551;52.506;4.678;2022-07-25T00:39:45;5.70;;;4.40;;
61642;SDS011;47551;52.506;4.678;2022-07-25T00:40:05;6.37;;;4.80;;
61642;SDS011;47551;52.506;4.678;2022-07-25T00:40:26;6.32;;;4.72;;
61642;SDS011;47551;52.506;4.678;2022-07-25T00:40:46;6.53;;;4.43;;
61642;SDS011;47551;52.506;4.678;2022-07-25T00:41:07;6.33;;;4.60;;
61642;SDS011;47551;52.506;4.678;2022-07-25T00:41:27;6.80;;;4.80;;
61642;SDS011;47551;52.506;4.678;2022-07-25T00:41:47;7.97;;;4.70;;
61642;SDS011;47551;52.506;4.678;2022-07-25T00:42:08;6.27;;;4.60;;
61642;SDS011;47551;52.506;4.678;2022-07-25T00:42:28;5.83;;;4.50;;
61642;SDS011;47551;52.506;4.678;2022-07-25T00:42:49;6.20;;;4.53;;
61642;SDS011;47551;52.506;4.678;2022-07-25T00:43:10;6.47;;;4.50;;
61642;SDS011;47551;52.506;4.678;2022-07-25T00:43:30;7.17;;;4.57;;
61642;SDS011;47551;52.506;4.678;2022-07-25T00:43:51;5.93;;;4.68;;
61642;SDS011;47551;52.506;4.678;2022-07-25T00:44:22;6.25;;;4.95;;
61642;SDS011;47551;52.506;4.678;2022-07-25T00:44:44;7.03;;;4.40;;
61642;SDS011;47551;52.506;4.678;2022-07-25T00:45:04;6.82;;;4.57;;
61642;SDS011;47551;52.506;4.678;2022-07-25T00:45:25;6.53;;;4.70;;
61642;SDS011;47551;52.506;4.678;2022-07-25T00:45:45;6.20;;;4.63;;
61642;SDS011;47551;52.506;4.678;2022-07-25T00:46:05;6.63;;;4.40;;
61642;SDS011;47551;52.506;4.678;2022-07-25T00:46:26;5.70;;;4.17;;
61642;SDS011;47551;52.506;4.678;2022-07-25T00:46:46;5.85;;;4.40;;
61642;SDS011;47551;52.506;4.678;2022-07-25T00:47:06;5.97;;;4.70;;
61642;SDS011;47551;52.506;4.678;2022-07-25T00:47:27;5.80;;;4.70;;
61642;SDS011;47551;52.506;4.678;2022-07-25T00:47:47;5.93;;;4.50;;
61642;SDS011;47551;52.506;4.678;2022-07-25T00:48:07;6.17;;;4.60;;
61642;SDS011;47551;52.506;4.678;2022-07-25T00:48:31;7.13;;;4.65;;
61642;SDS011;47551;52.506;4.678;2022-07-25T00:48:51;6.40;;;4.47;;
61642;SDS011;47551;52.506;4.678;2022-07-25T00:49:11;6.47;;;4.67;;
61642;SDS011;47551;52.506;4.678;2022-07-25T00:49:32;5.57;;;4.43;;
61642;SDS011;47551;52.506;4.678;2022-07-25T00:49:52;5.40;;;4.30;;
61642;SDS011;47551;52.506;4.678;2022-07-25T00:50:12;6.87;;;4.40;;
61642;SDS011;47551;52.506;4.678;2022-07-25T00:50:33;6.97;;;4.35;;
61642;SDS011;47551;52.506;4.678;2022-07-25T00:50:55;6.03;;;4.47;;
61642;SDS011;47551;52.506;4.678;2022-07-25T00:51:15;6.82;;;4.65;;
61642;SDS011;47551;52.506;4.678;2022-07-25T00:51:36;5.88;;;4.50;;
61642;SDS011;47551;52.506;4.678;2022-07-25T00:51:57;5.80;;;4.47;;
61642;SDS011;47551;52.506;4.678;2022-07-25T00:52:17;6.75;;;4.65;;
61642;SDS011;47551;52.506;4.678;2022-07-25T00:52:42;7.25;;;4.47;;
61642;SDS011;47551;52.506;4.678;2022-07-25T00:53:03;6.28;;;4.57;;
61642;SDS011;47551;52.506;4.678;2022-07-25T00:53:24;6.35;;;4.50;;
61642;SDS011;47551;52.506;4.678;2022-07-25T00:53:44;7.07;;;4.97;;
61642;SDS011;47551;52.506;4.678;2022-07-25T00:54:05;6.95;;;4.70;;
61642;SDS011;47551;52.506;4.678;2022-07-25T00:54:25;6.40;;;4.70;;
61642;SDS011;47551;52.506;4.678;2022-07-25T00:54:46;6.67;;;4.40;;
61642;SDS011;47551;52.506;4.678;2022-07-25T00:55:06;6.97;;;4.50;;
61642;SDS011;47551;52.506;4.678;2022-07-25T00:55:27;6.03;;;4.60;;
61642;SDS011;47551;52.506;4.678;2022-07-25T00:55:49;7.35;;;4.57;;
61642;SDS011;47551;52.506;4.678;2022-07-25T00:56:09;6.90;;;4.87;;
61642;SDS011;47551;52.506;4.678;2022-07-25T00:56:29;6.65;;;4.90;;
61642;SDS011;47551;52.506;4.678;2022-07-25T00:56:50;6.83;;;4.60;;
61642;SDS011;47551;52.506;4.678;2022-07-25T00:57:11;6.38;;;4.43;;
61642;SDS011;47551;52.506;4.678;2022-07-25T00:57:33;6.45;;;4.47;;
61642;SDS011;47551;52.506;4.678;2022-07-25T00:57:54;6.27;;;4.60;;
61642;SDS011;47551;52.506;4.678;2022-07-25T00:58:14;6.00;;;4.30;;
61642;SDS011;47551;52.506;4.678;2022-07-25T00:58:35;6.43;;;4.43;;
61642;SDS011;47551;52.506;4.678;2022-07-25T00:58:55;6.40;;;4.55;;
61642;SDS011;47551;52.506;4.678;2022-07-25T00:59:16;5.97;;;4.53;;
61642;SDS011;47551;52.506;4.678;2022-07-25T00:59:36;6.32;;;4.60;;
61642;SDS011;47551;52.506;4.678;2022-07-25T00:59:57;6.53;;;4.70;;
61642;SDS011;47551;52.506;4.678;2022-07-25T01:00:17;7.20;;;4.80;;
61642;SDS011;47551;52.506;4.678;2022-07-25T01:00:38;6.07;;;4.80;;
61642;SDS011;47551;52.506;4.678;2022-07-25T01:00:58;5.45;;;4.50;;
61642;SDS011;47551;52.506;4.678;2022-07-25T01:01:19;5.60;;;4.32;;
61642;SDS011;47551;52.506;4.678;2022-07-25T01:01:39;6.30;;;4.40;;
61642;SDS011;47551;52.506;4.678;2022-07-25T01:02:01;6.57;;;4.57;;
61642;SDS011;47551;52.506;4.678;2022-07-25T01:02:21;6.87;;;4.40;;
61642;SDS011;47551;52.506;4.678;2022-07-25T01:02:42;5.80;;;4.40;;
61642;SDS011;47551;52.506;4.678;2022-07-25T01:03:03;6.15;;;4.50;;
61642;SDS011;47551;52.506;4.678;2022-07-25T01:03:24;6.57;;;4.40;;
61642;SDS011;47551;52.506;4.678;2022-07-25T01:03:44;6.57;;;4.50;;
61642;SDS011;47551;52.506;4.678;2022-07-25T01:04:04;6.83;;;4.43;;
61642;SDS011;47551;52.506;4.678;2022-07-25T01:04:25;6.45;;;4.30;;
61642;SDS011;47551;52.506;4.678;2022-07-25T01:04:46;6.10;;;4.50;;
61642;SDS011;47551;52.506;4.678;2022-07-25T01:05:06;6.75;;;4.60;;
61642;SDS011;47551;52.506;4.678;2022-07-25T01:05:27;7.97;;;4.90;;
61642;SDS011;47551;52.506;4.678;2022-07-25T01:05:47;6.50;;;4.60;;
61642;SDS011;47551;52.506;4.678;2022-07-25T01:06:09;7.03;;;4.53;;
61642;SDS011;47551;52.506;4.678;2022-07-25T01:06:30;6.15;;;4.30;;
61642;SDS011;47551;52.506;4.678;2022-07-25T01:06:51;5.85;;;4.53;;
61642;SDS011;47551;52.506;4.678;2022-07-25T01:07:12;5.22;;;4.30;;
61642;SDS011;47551;52.506;4.678;2022-07-25T01:07:33;6.05;;;4.53;;
61642;SDS011;47551;52.506;4.678;2022-07-25T01:07:54;5.68;;;4.30;;
61642;SDS011;47551;52.506;4.678;2022-07-25T01:08:19;6.78;;;4.60;;
61642;SDS011;47551;52.506;4.678;2022-07-25T01:08:41;6.85;;;4.70;;
61642;SDS011;47551;52.506;4.678;2022-07-25T01:09:02;6.43;;;4.40;;
61642;SDS011;47551;52.506;4.678;2022-07-25T01:09:22;5.73;;;4.43;;
61642;SDS011;47551;52.506;4.678;2022-07-25T01:09:43;5.53;;;4.50;;
61642;SDS011;47551;52.506;4.678;2022-07-25T01:10:04;5.95;;;4.50;;
61642;SDS011;47551;52.506;4.678;2022-07-25T01:10:25;5.97;;;4.57;;
61642;SDS011;47551;52.506;4.678;2022-07-25T01:10:46;5.70;;;4.28;;
61642;SDS011;47551;52.506;4.678;2022-07-25T01:11:07;5.22;;;4.20;;
61642;SDS011;47551;52.506;4.678;2022-07-25T01:11:33;5.80;;;4.15;;
61642;SDS011;47551;52.506;4.678;2022-07-25T01:11:54;6.10;;;4.30;;
61642;SDS011;47551;52.506;4.678;2022-07-25T01:12:14;5.93;;;4.60;;
61642;SDS011;47551;52.506;4.678;2022-07-25T01:12:48;5.93;;;4.50;;
61642;SDS011;47551;52.506;4.678;2022-07-25T01:13:10;6.32;;;4.80;;
61642;SDS011;47551;52.506;4.678;2022-07-25T01:13:31;6.20;;;4.77;;
61642;SDS011;47551;52.506;4.678;2022-07-25T01:14:02;6.40;;;4.45;;
61642;SDS011;47551;52.506;4.678;2022-07-25T01:14:23;5.32;;;4.43;;
61642;SDS011;47551;52.506;4.678;2022-07-25T01:14:44;6.20;;;4.70;;
61642;SDS011;47551;52.506;4.678;2022-07-25T01:15:04;6.05;;;4.40;;
61642;SDS011;47551;52.506;4.678;2022-07-25T01:15:25;6.23;;;4.60;;
61642;SDS011;47551;52.506;4.678;2022-07-25T01:15:46;5.63;;;4.60;;
61642;SDS011;47551;52.506;4.678;2022-07-25T01:16:09;5.78;;;4.65;;
61642;SDS011;47551;52.506;4.678;2022-07-25T01:16:30;5.93;;;4.40;;
61642;SDS011;47551;52.506;4.678;2022-07-25T01:16:50;6.15;;;4.50;;
61642;SDS011;47551;52.506;4.678;2022-07-25T01:17:11;5.60;;;4.30;;
61642;SDS011;47551;52.506;4.678;2022-07-25T01:17:32;5.68;;;4.65;;
61642;SDS011;47551;52.506;4.678;2022-07-25T01:17:52;6.53;;;4.65;;
61642;SDS011;47551;52.506;4.678;2022-07-25T01:18:12;6.07;;;4.70;;
61642;SDS011;47551;52.506;4.678;2022-07-25T01:18:33;6.20;;;4.60;;
61642;SDS011;47551;52.506;4.678;2022-07-25T01:18:56;5.78;;;4.45;;
61642;SDS011;47551;52.506;4.678;2022-07-25T01:19:16;5.40;;;4.80;;
61642;SDS011;47551;52.506;4.678;2022-07-25T01:19:36;6.17;;;4.73;;
61642;SDS011;47551;52.506;4.678;2022-07-25T01:19:57;6.10;;;4.50;;
61642;SDS011;47551;52.506;4.678;2022-07-25T01:20:24;5.93;;;4.55;;
61642;SDS011;47551;52.506;4.678;2022-07-25T01:20:46;5.88;;;4.65;;
61642;SDS011;47551;52.506;4.678;2022-07-25T01:21:12;5.70;;;4.60;;
61642;SDS011;47551;52.506;4.678;2022-07-25T01:21:36;5.10;;;4.30;;
61642;SDS011;47551;52.506;4.678;2022-07-25T01:21:57;6.13;;;4.50;;
61642;SDS011;47551;52.506;4.678;2022-07-25T01:22:17;5.70;;;4.47;;
61642;SDS011;47551;52.506;4.678;2022-07-25T01:22:37;6.50;;;4.70;;
61642;SDS011;47551;52.506;4.678;2022-07-25T01:22:58;6.20;;;4.57;;
61642;SDS011;47551;52.506;4.678;2022-07-25T01:23:19;5.55;;;4.70;;
61642;SDS011;47551;52.506;4.678;2022-07-25T01:23:40;5.67;;;4.53;;
61642;SDS011;47551;52.506;4.678;2022-07-25T01:24:00;5.82;;;4.60;;
61642;SDS011;47551;52.506;4.678;2022-07-25T01:24:21;5.78;;;4.72;;
61642;SDS011;47551;52.506;4.678;2022-07-25T01:24:41;5.70;;;4.33;;
61642;SDS011;47551;52.506;4.678;2022-07-25T01:25:02;6.25;;;4.30;;
61642;SDS011;47551;52.506;4.678;2022-07-25T01:25:23;6.73;;;4.53;;
61642;SDS011;47551;52.506;4.678;2022-07-25T01:25:43;5.88;;;4.53;;
61642;SDS011;47551;52.506;4.678;2022-07-25T01:26:06;6.90;;;4.53;;
61642;SDS011;47551;52.506;4.678;2022-07-25T01:26:27;5.47;;;4.70;;
61642;SDS011;47551;52.506;4.678;2022-07-25T01:26:47;5.77;;;4.87;;
61642;SDS011;47551;52.506;4.678;2022-07-25T01:27:08;5.47;;;4.73;;
61642;SDS011;47551;52.506;4.678;2022-07-25T01:27:28;5.80;;;4.50;;
61642;SDS011;47551;52.506;4.678;2022-07-25T01:27:50;5.47;;;4.45;;
61642;SDS011;47551;52.506;4.678;2022-07-25T01:28:10;5.80;;;4.90;;
61642;SDS011;47551;52.506;4.678;2022-07-25T01:28:30;5.87;;;4.67;;
61642;SDS011;47551;52.506;4.678;2022-07-25T01:28:51;5.70;;;4.70;;
61642;SDS011;47551;52.506;4.678;2022-07-25T01:29:11;5.35;;;4.53;;
61642;SDS011;47551;52.506;4.678;2022-07-25T01:29:31;6.50;;;4.47;;
61642;SDS011;47551;52.506;4.678;2022-07-25T01:29:52;6.23;;;4.50;;
61642;SDS011;47551;52.506;4.678;2022-07-25T01:30:13;5.80;;;4.50;;
61642;SDS011;47551;52.506;4.678;2022-07-25T01:30:36;7.28;;;4.70;;
61642;SDS011;47551;52.506;4.678;2022-07-25T01:30:57;6.67;;;4.53;;
61642;SDS011;47551;52.506;4.678;2022-07-25T01:31:20;6.40;;;4.70;;
61642;SDS011;47551;52.506;4.678;2022-07-25T01:31:40;6.40;;;4.73;;
61642;SDS011;47551;52.506;4.678;2022-07-25T01:32:00;6.80;;;4.90;;
61642;SDS011;47551;52.506;4.678;2022-07-25T01:32:21;6.33;;;4.83;;
61642;SDS011;47551;52.506;4.678;2022-07-25T01:32:41;6.03;;;4.70;;
61642;SDS011;47551;52.506;4.678;2022-07-25T01:33:03;6.07;;;4.60;;
61642;SDS011;47551;52.506;4.678;2022-07-25T01:33:23;6.10;;;4.53;;
61642;SDS011;47551;52.506;4.678;2022-07-25T01:33:43;6.37;;;4.73;;
61642;SDS011;47551;52.506;4.678;2022-07-25T01:34:03;7.43;;;4.70;;
61642;SDS011;47551;52.506;4.678;2022-07-25T01:34:24;6.43;;;4.78;;
61642;SDS011;47551;52.506;4.678;2022-07-25T01:34:44;5.70;;;4.70;;
61642;SDS011;47551;52.506;4.678;2022-07-25T01:35:05;6.50;;;4.80;;
61642;SDS011;47551;52.506;4.678;2022-07-25T01:35:29;5.93;;;4.90;;
61642;SDS011;47551;52.506;4.678;2022-07-25T01:35:49;6.90;;;5.05;;
61642;SDS011;47551;52.506;4.678;2022-07-25T01:36:09;6.93;;;4.93;;
61642;SDS011;47551;52.506;4.678;2022-07-25T01:36:30;6.20;;;5.00;;
61642;SDS011;47551;52.506;4.678;2022-07-25T01:36:53;5.65;;;4.63;;
61642;SDS011;47551;52.506;4.678;2022-07-25T01:37:13;5.55;;;4.85;;
61642;SDS011;47551;52.506;4.678;2022-07-25T01:37:33;5.87;;;4.87;;
61642;SDS011;47551;52.506;4.678;2022-07-25T01:37:54;6.20;;;4.90;;
61642;SDS011;47551;52.506;4.678;2022-07-25T01:38:14;5.90;;;4.50;;
61642;SDS011;47551;52.506;4.678;2022-07-25T01:38:35;5.45;;;4.50;;
61642;SDS011;47551;52.506;4.678;2022-07-25T01:38:59;5.93;;;4.85;;
61642;SDS011;47551;52.506;4.678;2022-07-25T01:39:19;6.03;;;4.97;;
61642;SDS011;47551;52.506;4.678;2022-07-25T01:39:39;6.70;;;4.67;;
61642;SDS011;47551;52.506;4.678;2022-07-25T01:40:00;6.68;;;4.88;;
61642;SDS011;47551;52.506;4.678;2022-07-25T01:40:20;6.80;;;4.90;;
61642;SDS011;47551;52.506;4.678;2022-07-25T01:40:41;6.20;;;4.80;;
61642;SDS011;47551;52.506;4.678;2022-07-25T01:41:11;5.75;;;4.50;;
61642;SDS011;47551;52.506;4.678;2022-07-25T01:41:32;6.07;;;4.70;;
61642;SDS011;47551;52.506;4.678;2022-07-25T01:41:52;6.23;;;5.00;;
61642;SDS011;47551;52.506;4.678;2022-07-25T01:42:12;5.93;;;4.80;;
61642;SDS011;47551;52.506;4.678;2022-07-25T01:42:33;6.50;;;4.73;;
61642;SDS011;47551;52.506;4.678;2022-07-25T01:42:53;6.53;;;5.00;;
61642;SDS011;47551;52.506;4.678;2022-07-25T01:43:13;6.35;;;4.70;;
61642;SDS011;47551;52.506;4.678;2022-07-25T01:43:34;5.60;;;4.90;;
61642;SDS011;47551;52.506;4.678;2022-07-25T01:43:54;5.78;;;4.70;;
61642;SDS011;47551;52.506;4.678;2022-07-25T01:44:15;6.33;;;4.60;;
61642;SDS011;47551;52.506;4.678;2022-07-25T01:44:36;6.20;;;4.50;;
61642;SDS011;47551;52.506;4.678;2022-07-25T01:44:56;5.68;;;4.60;;
61642;SDS011;47551;52.506;4.678;2022-07-25T01:45:16;6.67;;;4.97;;
61642;SDS011;47551;52.506;4.678;2022-07-25T01:45:37;6.47;;;4.87;;
61642;SDS011;47551;52.506;4.678;2022-07-25T01:45:57;5.90;;;4.70;;
61642;SDS011;47551;52.506;4.678;2022-07-25T01:46:20;5.75;;;4.72;;
61642;SDS011;47551;52.506;4.678;2022-07-25T01:46:43;5.85;;;4.82;;
61642;SDS011;47551;52.506;4.678;2022-07-25T01:47:03;5.82;;;4.78;;
61642;SDS011;47551;52.506;4.678;2022-07-25T01:47:24;5.90;;;4.73;;
61642;SDS011;47551;52.506;4.678;2022-07-25T01:47:44;6.68;;;4.80;;
61642;SDS011;47551;52.506;4.678;2022-07-25T01:48:05;6.70;;;4.73;;
61642;SDS011;47551;52.506;4.678;2022-07-25T01:48:25;6.03;;;4.90;;
61642;SDS011;47551;52.506;4.678;2022-07-25T01:48:46;6.47;;;4.73;;
61642;SDS011;47551;52.506;4.678;2022-07-25T01:49:06;6.78;;;5.00;;
61642;SDS011;47551;52.506;4.678;2022-07-25T01:49:26;5.97;;;4.70;;
61642;SDS011;47551;52.506;4.678;2022-07-25T01:49:47;6.03;;;4.57;;
61642;SDS011;47551;52.506;4.678;2022-07-25T01:50:07;6.10;;;4.90;;
61642;SDS011;47551;52.506;4.678;2022-07-25T01:50:28;6.38;;;4.72;;
61642;SDS011;47551;52.506;4.678;2022-07-25T01:51:09;6.40;;;4.65;;
61642;SDS011;47551;52.506;4.678;2022-07-25T01:51:29;7.23;;;4.77;;
61642;SDS011;47551;52.506;4.678;2022-07-25T01:51:49;6.00;;;4.77;;
61642;SDS011;47551;52.506;4.678;2022-07-25T01:52:10;6.00;;;4.87;;
61642;SDS011;47551;52.506;4.678;2022-07-25T01:52:31;5.75;;;4.78;;
61642;SDS011;47551;52.506;4.678;2022-07-25T01:52:52;6.10;;;4.80;;
61642;SDS011;47551;52.506;4.678;2022-07-25T01:53:12;5.90;;;4.57;;
61642;SDS011;47551;52.506;4.678;2022-07-25T01:53:32;6.30;;;4.87;;
61642;SDS011;47551;52.506;4.678;2022-07-25T01:53:53;7.03;;;5.05;;
61642;SDS011;47551;52.506;4.678;2022-07-25T01:54:13;6.23;;;4.80;;
61642;SDS011;47551;52.506;4.678;2022-07-25T01:54:33;6.00;;;4.70;;
61642;SDS011;47551;52.506;4.678;2022-07-25T01:54:54;6.20;;;4.63;;
61642;SDS011;47551;52.506;4.678;2022-07-25T01:55:14;5.40;;;4.50;;
61642;SDS011;47551;52.506;4.678;2022-07-25T01:55:34;6.03;;;4.68;;
61642;SDS011;47551;52.506;4.678;2022-07-25T01:55:55;6.33;;;4.63;;
61642;SDS011;47551;52.506;4.678;2022-07-25T01:56:15;6.53;;;4.93;;
61642;SDS011;47551;52.506;4.678;2022-07-25T01:56:36;5.93;;;4.85;;
61642;SDS011;47551;52.506;4.678;2022-07-25T01:56:56;6.17;;;4.43;;
61642;SDS011;47551;52.506;4.678;2022-07-25T01:57:17;5.93;;;4.78;;
61642;SDS011;47551;52.506;4.678;2022-07-25T01:57:38;6.17;;;4.63;;
61642;SDS011;47551;52.506;4.678;2022-07-25T01:57:59;5.88;;;4.53;;
61642;SDS011;47551;52.506;4.678;2022-07-25T01:58:19;5.40;;;4.60;;
61642;SDS011;47551;52.506;4.678;2022-07-25T01:58:45;6.55;;;4.63;;
61642;SDS011;47551;52.506;4.678;2022-07-25T01:59:06;6.17;;;4.47;;
61642;SDS011;47551;52.506;4.678;2022-07-25T01:59:26;5.87;;;4.57;;
61642;SDS011;47551;52.506;4.678;2022-07-25T01:59:50;7.00;;;5.10;;
61642;SDS011;47551;52.506;4.678;2022-07-25T02:00:11;6.82;;;4.90;;
61642;SDS011;47551;52.506;4.678;2022-07-25T02:00:32;5.63;;;4.57;;
61642;SDS011;47551;52.506;4.678;2022-07-25T02:00:53;6.00;;;4.70;;
61642;SDS011;47551;52.506;4.678;2022-07-25T02:01:16;6.03;;;4.50;;
61642;SDS011;47551;52.506;4.678;2022-07-25T02:01:36;5.78;;;4.70;;
61642;SDS011;47551;52.506;4.678;2022-07-25T02:01:57;6.63;;;4.73;;
61642;SDS011;47551;52.506;4.678;2022-07-25T02:02:20;6.40;;;4.77;;
61642;SDS011;47551;52.506;4.678;2022-07-25T02:02:41;6.37;;;4.70;;
61642;SDS011;47551;52.506;4.678;2022-07-25T02:03:02;5.93;;;4.80;;
61642;SDS011;47551;52.506;4.678;2022-07-25T02:03:41;6.03;;;4.38;;
61642;SDS011;47551;52.506;4.678;2022-07-25T02:04:02;5.95;;;4.50;;
61642;SDS011;47551;52.506;4.678;2022-07-25T02:04:23;6.23;;;4.73;;
61642;SDS011;47551;52.506;4.678;2022-07-25T02:04:45;6.28;;;4.82;;
61642;SDS011;47551;52.506;4.678;2022-07-25T02:05:06;6.23;;;4.70;;
61642;SDS011;47551;52.506;4.678;2022-07-25T02:05:31;6.00;;;4.50;;
61642;SDS011;47551;52.506;4.678;2022-07-25T02:05:51;5.63;;;4.50;;
61642;SDS011;47551;52.506;4.678;2022-07-25T02:06:14;6.03;;;4.70;;
61642;SDS011;47551;52.506;4.678;2022-07-25T02:06:55;6.57;;;4.65;;
61642;SDS011;47551;52.506;4.678;2022-07-25T02:07:15;5.97;;;4.57;;
61642;SDS011;47551;52.506;4.678;2022-07-25T02:07:35;5.83;;;4.80;;